createdAt,value
2023-04-16T00:00:07.920Z,102346.59
2023-04-16T00:02:34.543Z,102341.47
2023-04-16T00:05:04.092Z,102337.28
2023-04-16T00:07:33.072Z,102341.47
2023-04-16T00:09:59.631Z,102340.53
2023-04-16T00:12:26.126Z,102336.34
2023-04-16T00:14:55.286Z,102338.78
2023-04-16T00:17:21.781Z,102343.66
2023-04-16T00:19:48.253Z,102337.72
2023-04-16T00:22:14.728Z,102344.47
2023-04-16T00:24:41.526Z,102339.59
2023-04-16T00:27:10.735Z,102339.44
2023-04-16T00:29:37.239Z,102336.88
2023-04-16T00:32:03.765Z,102330.03
2023-04-16T00:34:30.492Z,102332.59
2023-04-16T00:36:56.924Z,102336.78
2023-04-16T00:39:23.558Z,102334.22
2023-04-16T00:41:52.246Z,102339.19
2023-04-16T00:44:21.417Z,102341.09
2023-04-16T00:46:48.028Z,102341.91
2023-04-16T00:49:14.917Z,102336.63
2023-04-16T00:51:41.452Z,102346.06
2023-04-16T00:54:07.964Z,102345.28
2023-04-16T00:56:38.007Z,102341.75
2023-04-16T00:59:07.658Z,102350.25
2023-04-16T01:01:39.188Z,102337.59
2023-04-16T01:04:07.203Z,102335.84
2023-04-16T01:06:34.255Z,102340.16
2023-04-16T01:09:05.737Z,102341.91
2023-04-16T01:11:32.673Z,102341.09
2023-04-16T01:13:59.139Z,102338.53
2023-04-16T01:16:26.876Z,102343.75
2023-04-16T01:18:53.450Z,102341.19
2023-04-16T01:21:19.952Z,102338.63
2023-04-16T01:23:46.526Z,102343.75
2023-04-16T01:26:18.090Z,102343.91
2023-04-16T01:28:44.570Z,102339.72
2023-04-16T01:31:11.132Z,102339.72
2023-04-16T01:33:40.632Z,102342.28
2023-04-16T01:36:09.599Z,102349.81
2023-04-16T01:38:38.496Z,102338.91
2023-04-16T01:41:09.807Z,102342.28
2023-04-16T01:43:40.274Z,102340.53
2023-04-16T01:46:25.949Z,102347.13
2023-04-16T01:48:54.918Z,102351.44
2023-04-16T01:51:22.178Z,102354.69
2023-04-16T01:53:49.467Z,102350.53
2023-04-16T01:56:16.179Z,102347.13
2023-04-16T01:58:46.449Z,102353.88
2023-04-16T02:01:13.746Z,102353.88
2023-04-16T02:03:40.954Z,102354.56
2023-04-16T02:06:10.314Z,102350.25
2023-04-16T02:08:39.232Z,102352.00
2023-04-16T02:11:05.795Z,102354.44
2023-04-16T02:13:35.748Z,102353.63
2023-04-16T02:16:02.718Z,102351.06
2023-04-16T02:18:29.304Z,102348.50
2023-04-16T02:21:01.043Z,102342.56
2023-04-16T02:23:27.726Z,102337.22
2023-04-16T02:25:58.878Z,102347.44
2023-04-16T02:28:27.719Z,102348.38
2023-04-16T02:30:56.567Z,102342.44
2023-04-16T02:33:26.736Z,102336.41
2023-04-16T02:35:53.282Z,102335.56
2023-04-16T02:38:19.788Z,102339.78
2023-04-16T02:40:46.309Z,102349.06
2023-04-16T02:43:12.795Z,102341.38
2023-04-16T02:45:39.309Z,102346.38
2023-04-16T02:48:07.284Z,102352.28
2023-04-16T02:50:33.757Z,102347.19
2023-04-16T02:53:00.230Z,102338.69
2023-04-16T02:55:26.853Z,102344.75
2023-04-16T02:57:58.088Z,102344.47
2023-04-16T03:00:24.558Z,102359.84
2023-04-16T03:02:51.283Z,102360.69
2023-04-16T03:05:22.858Z,102355.56
2023-04-16T03:07:50.633Z,102362.28
2023-04-16T03:10:19.477Z,102360.53
2023-04-16T03:12:48.381Z,102359.75
2023-04-16T03:15:15.229Z,102357.03
2023-04-16T03:17:44.219Z,102365.53
2023-04-16T03:20:11.169Z,102373.22
2023-04-16T03:22:39.186Z,102369.69
2023-04-16T03:25:06.602Z,102368.09
2023-04-16T03:27:33.385Z,102375.91
2023-04-16T03:30:03.265Z,102383.59
2023-04-16T03:32:32.284Z,102387.09
2023-04-16T03:34:58.904Z,102381.16
2023-04-16T03:37:27.687Z,102377.75
2023-04-16T03:39:54.320Z,102383.72
2023-04-16T03:42:22.917Z,102381.03
2023-04-16T03:44:53.592Z,102381.84
2023-04-16T03:47:22.472Z,102374.28
2023-04-16T03:49:51.312Z,102386.28
2023-04-16T03:52:17.819Z,102387.91
2023-04-16T03:54:46.818Z,102381.97
2023-04-16T03:57:13.320Z,102382.06
2023-04-16T03:59:42.056Z,102376.97
2023-04-16T04:02:08.633Z,102383.84
2023-04-16T04:04:35.318Z,102382.22
2023-04-16T04:07:01.883Z,102380.47
2023-04-16T04:09:28.405Z,102383.84
2023-04-16T04:11:54.984Z,102386.38
2023-04-16T04:14:21.743Z,102376.28
2023-04-16T04:16:50.680Z,102387.34
2023-04-16T04:19:17.197Z,102388.41
2023-04-16T04:21:43.701Z,102385.72
2023-04-16T04:24:10.381Z,102388.16
2023-04-16T04:26:38.925Z,102393.25
2023-04-16T04:29:05.654Z,102396.75
2023-04-16T04:31:32.311Z,102400.28
2023-04-16T04:34:01.025Z,102403.50
2023-04-16T04:36:29.975Z,102405.13
2023-04-16T04:38:56.486Z,102399.31
2023-04-16T04:41:23.199Z,102395.81
2023-04-16T04:43:49.679Z,102403.50
2023-04-16T04:46:16.144Z,102409.56
2023-04-16T04:48:44.914Z,102412.94
2023-04-16T04:51:13.944Z,102415.63
2023-04-16T04:53:42.954Z,102418.06
2023-04-16T04:56:12.907Z,102420.63
2023-04-16T04:58:40.900Z,102414.56
2023-04-16T05:01:07.469Z,102418.88
2023-04-16T05:03:34.057Z,102417.13
2023-04-16T05:06:00.759Z,102416.19
2023-04-16T05:08:29.384Z,102421.19
2023-04-16T05:10:58.143Z,102421.19
2023-04-16T05:13:24.707Z,102413.63
2023-04-16T05:15:54.215Z,102410.94
2023-04-16T05:18:20.641Z,102417.13
2023-04-16T05:20:52.007Z,102422.13
2023-04-16T05:23:18.456Z,102419.44
2023-04-16T05:25:47.699Z,102421.06
2023-04-16T05:28:14.588Z,102408.25
2023-04-16T05:30:41.207Z,102425.38
2023-04-16T05:33:07.726Z,102420.13
2023-04-16T05:35:38.795Z,102423.47
2023-04-16T05:38:05.269Z,102427.78
2023-04-16T05:40:36.769Z,102426.03
2023-04-16T05:43:03.380Z,102428.50
2023-04-16T05:45:33.433Z,102431.88
2023-04-16T05:48:00.019Z,102437.00
2023-04-16T05:50:26.536Z,102431.72
2023-04-16T05:52:57.994Z,102441.03
2023-04-16T05:55:24.510Z,102438.47
2023-04-16T05:57:52.077Z,102441.84
2023-04-16T06:00:20.879Z,102439.19
2023-04-16T06:02:47.549Z,102439.19
2023-04-16T06:05:16.248Z,102446.84
2023-04-16T06:07:47.527Z,102447.53
2023-04-16T06:10:16.594Z,102446.72
2023-04-16T06:12:45.373Z,102456.84
2023-04-16T06:15:11.878Z,102450.91
2023-04-16T06:17:40.795Z,102454.13
2023-04-16T06:20:10.892Z,102463.47
2023-04-16T06:22:37.551Z,102461.72
2023-04-16T06:25:04.346Z,102461.59
2023-04-16T06:27:31.422Z,102458.06
2023-04-16T06:30:00.981Z,102458.88
2023-04-16T06:32:30.086Z,102462.25
2023-04-16T06:34:59.090Z,102458.88
2023-04-16T06:37:25.630Z,102474.69
2023-04-16T06:39:52.085Z,102471.31
2023-04-16T06:42:18.549Z,102469.69
2023-04-16T06:44:45.088Z,102478.78
2023-04-16T06:47:16.200Z,102477.72
2023-04-16T06:49:42.652Z,102478.53
2023-04-16T06:52:11.439Z,102485.84
2023-04-16T06:54:42.649Z,102482.09
2023-04-16T06:57:13.920Z,102491.53
2023-04-16T06:59:40.594Z,102485.69
2023-04-16T07:02:10.601Z,102493.38
2023-04-16T07:04:37.294Z,102498.50
2023-04-16T07:07:06.105Z,102493.28
2023-04-16T07:09:32.566Z,102496.66
2023-04-16T07:11:59.058Z,102505.28
2023-04-16T07:14:25.525Z,102495.84
2023-04-16T07:16:52.095Z,102501.78
2023-04-16T07:19:21.201Z,102502.44
2023-04-16T07:21:47.812Z,102515.41
2023-04-16T07:24:17.506Z,102517.16
2023-04-16T07:26:43.983Z,102513.50
2023-04-16T07:29:10.609Z,102520.94
2023-04-16T07:31:37.311Z,102515.69
2023-04-16T07:34:03.891Z,102515.81
2023-04-16T07:36:32.852Z,102525.13
2023-04-16T07:38:59.350Z,102520.81
2023-04-16T07:41:29.394Z,102528.94
2023-04-16T07:43:58.149Z,102529.59
2023-04-16T07:46:28.236Z,102530.41
2023-04-16T07:48:57.055Z,102532.16
2023-04-16T07:51:23.957Z,102535.13
2023-04-16T07:53:52.873Z,102536.63
2023-04-16T07:56:19.335Z,102538.09
2023-04-16T07:58:45.792Z,102540.56
2023-04-16T08:01:16.797Z,102547.03
2023-04-16T08:03:45.679Z,102544.63
2023-04-16T08:06:12.368Z,102550.69
2023-04-16T08:08:38.794Z,102547.31
2023-04-16T08:11:05.282Z,102559.84
2023-04-16T08:13:33.499Z,102560.56
2023-04-16T08:16:03.566Z,102559.63
2023-04-16T08:18:34.722Z,102561.00
2023-04-16T08:21:01.512Z,102561.44
2023-04-16T08:23:28.035Z,102567.09
2023-04-16T08:25:56.755Z,102568.59
2023-04-16T08:28:25.610Z,102573.22
2023-04-16T08:30:52.181Z,102576.59
2023-04-16T08:33:21.780Z,102571.47
2023-04-16T08:35:48.362Z,102574.44
2023-04-16T08:38:14.827Z,102575.25
2023-04-16T08:40:48.672Z,102577.69
2023-04-16T08:43:19.361Z,102580.16
2023-04-16T08:45:50.532Z,102584.75
2023-04-16T08:48:20.702Z,102584.63
2023-04-16T08:50:52.299Z,102587.44
2023-04-16T08:53:24.743Z,102594.75
2023-04-16T08:56:02.107Z,102596.13
2023-04-16T08:58:31.895Z,102590.19
2023-04-16T09:01:03.265Z,102593.13
2023-04-16T09:03:34.816Z,102596.25
2023-04-16T09:06:04.478Z,102592.22
2023-04-16T09:08:31.900Z,102593.22
2023-04-16T09:11:01.883Z,102599.69
2023-04-16T09:13:28.495Z,102604.00
2023-04-16T09:15:56.956Z,102598.19
2023-04-16T09:18:24.297Z,102596.31
2023-04-16T09:20:51.938Z,102598.47
2023-04-16T09:23:18.486Z,102596.19
2023-04-16T09:25:45.122Z,102605.00
2023-04-16T09:28:41.064Z,102598.34
2023-04-16T09:31:11.311Z,102605.66
2023-04-16T09:33:40.497Z,102612.97
2023-04-16T09:36:07.592Z,102609.59
2023-04-16T09:38:48.698Z,102613.13
2023-04-16T09:41:18.517Z,102611.09
2023-04-16T09:43:58.124Z,102630.59
2023-04-16T09:46:29.991Z,102615.69
2023-04-16T09:48:56.631Z,102623.03
2023-04-16T09:51:28.305Z,102628.00
2023-04-16T09:53:58.901Z,102624.34
2023-04-16T09:56:26.135Z,102621.78
2023-04-16T09:58:59.753Z,102628.03
2023-04-16T10:01:26.392Z,102631.81
2023-04-16T10:03:55.327Z,102635.31
2023-04-16T10:06:29.096Z,102632.75
2023-04-16T10:08:58.267Z,102635.03
2023-04-16T10:11:25.709Z,102635.19
2023-04-16T10:13:52.192Z,102633.84
2023-04-16T10:16:23.482Z,102645.72
2023-04-16T10:18:50.032Z,102641.69
2023-04-16T10:21:16.746Z,102639.66
2023-04-16T10:23:44.036Z,102639.41
2023-04-16T10:26:13.916Z,102648.72
2023-04-16T10:28:40.691Z,102641.53
2023-04-16T10:31:10.636Z,102644.13
2023-04-16T10:33:43.261Z,102640.06
2023-04-16T10:36:22.855Z,102635.91
2023-04-16T10:38:58.794Z,102639.53
2023-04-16T10:41:28.831Z,102642.66
2023-04-16T10:44:09.849Z,102641.44
2023-04-16T10:46:39.929Z,102637.38
2023-04-16T10:49:14.280Z,102641.72
2023-04-16T10:51:53.359Z,102649.81
2023-04-16T10:54:34.201Z,102640.91
2023-04-16T10:57:10.140Z,102643.84
2023-04-16T10:59:38.081Z,102644.41
2023-04-16T11:02:11.860Z,102646.97
2023-04-16T11:04:40.274Z,102650.63
2023-04-16T11:07:18.797Z,102651.88
2023-04-16T11:10:03.098Z,102654.00
2023-04-16T11:12:29.836Z,102653.06
2023-04-16T11:15:00.873Z,102653.06
2023-04-16T11:17:43.150Z,102652.78
2023-04-16T11:20:32.413Z,102648.47
2023-04-16T11:22:58.962Z,102651.56
2023-04-16T11:25:29.449Z,102652.91
2023-04-16T11:27:59.186Z,102664.41
2023-04-16T11:30:34.098Z,102656.69
2023-04-16T11:33:09.404Z,102658.06
2023-04-16T11:35:35.981Z,102655.91
2023-04-16T11:38:02.594Z,102662.94
2023-04-16T11:40:34.899Z,102654.28
2023-04-16T11:43:17.203Z,102655.53
2023-04-16T11:46:00.592Z,102661.88
2023-04-16T11:48:46.932Z,102663.50
2023-04-16T11:51:13.893Z,102650.28
2023-04-16T11:53:51.363Z,102653.28
2023-04-16T11:56:26.149Z,102658.94
2023-04-16T11:59:14.418Z,102660.72
2023-04-16T12:01:45.984Z,102657.75
2023-04-16T12:04:19.216Z,102667.31
2023-04-16T12:07:14.883Z,102671.25
2023-04-16T12:09:43.412Z,102667.75
2023-04-16T12:12:27.391Z,102666.94
2023-04-16T12:14:54.780Z,102672.88
2023-04-16T12:17:24.171Z,102672.84
2023-04-16T12:19:56.022Z,102674.19
2023-04-16T12:22:37.222Z,102676.19
2023-04-16T12:25:10.621Z,102680.41
2023-04-16T12:27:53.670Z,102681.00
2023-04-16T12:30:26.069Z,102681.00
2023-04-16T12:33:13.722Z,102692.72
2023-04-16T12:35:43.541Z,102680.00
2023-04-16T12:38:10.631Z,102687.50
2023-04-16T12:40:39.337Z,102678.28
2023-04-16T12:43:11.761Z,102686.81
2023-04-16T12:45:39.753Z,102671.81
2023-04-16T12:48:06.688Z,102689.91
2023-04-16T12:50:35.771Z,102676.94
2023-04-16T12:53:02.505Z,102685.72
2023-04-16T12:55:28.952Z,102689.25
2023-04-16T12:57:57.781Z,102688.03
2023-04-16T13:00:26.748Z,102689.25
2023-04-16T13:02:53.381Z,102683.56
2023-04-16T13:05:22.650Z,102692.09
2023-04-16T13:07:49.106Z,102687.63
2023-04-16T13:10:18.155Z,102689.25
2023-04-16T13:12:47.778Z,102689.78
2023-04-16T13:15:14.279Z,102686.28
2023-04-16T13:17:40.799Z,102687.22
2023-04-16T13:20:10.123Z,102688.28
2023-04-16T13:22:36.850Z,102686.13
2023-04-16T13:25:03.394Z,102680.59
2023-04-16T13:27:32.234Z,102678.56
2023-04-16T13:30:01.347Z,102679.91
2023-04-16T13:32:27.974Z,102687.63
2023-04-16T13:34:54.580Z,102681.78
2023-04-16T13:37:23.388Z,102674.22
2023-04-16T13:39:52.578Z,102681.53
2023-04-16T13:42:19.049Z,102680.03
2023-04-16T13:44:48.845Z,102685.88
2023-04-16T13:47:16.068Z,102684.78
2023-04-16T13:49:47.601Z,102687.50
2023-04-16T13:52:18.633Z,102685.88
2023-04-16T13:54:45.100Z,102684.66
2023-04-16T13:57:16.354Z,102684.78
2023-04-16T13:59:42.806Z,102684.75
2023-04-16T14:02:10.692Z,102679.38
2023-04-16T14:04:37.233Z,102674.88
2023-04-16T14:07:06.085Z,102676.09
2023-04-16T14:09:35.097Z,102674.19
2023-04-16T14:12:01.608Z,102672.53
2023-04-16T14:14:35.373Z,102674.41
2023-04-16T14:17:07.613Z,102677.53
2023-04-16T14:19:34.428Z,102670.53
2023-04-16T14:22:06.950Z,102671.75
2023-04-16T14:24:34.410Z,102670.38
2023-04-16T14:27:03.320Z,102674.72
2023-04-16T14:29:36.364Z,102670.63
2023-04-16T14:32:02.997Z,102674.28
2023-04-16T14:34:29.497Z,102680.19
2023-04-16T14:36:58.707Z,102679.28
2023-04-16T14:39:27.605Z,102678.25
2023-04-16T14:41:54.160Z,102675.94
2023-04-16T14:44:21.593Z,102666.34
2023-04-16T14:46:48.381Z,102677.44
2023-04-16T14:49:15.107Z,102668.91
2023-04-16T14:51:42.226Z,102675.78
2023-04-16T14:54:09.141Z,102672.94
2023-04-16T14:56:37.876Z,102665.56
2023-04-16T14:59:04.611Z,102672.38
2023-04-16T15:01:32.208Z,102668.31
2023-04-16T15:04:02.050Z,102668.19
2023-04-16T15:06:32.304Z,102665.56
2023-04-16T15:08:58.996Z,102666.44
2023-04-16T15:11:25.701Z,102671.44
2023-04-16T15:13:54.525Z,102665.91
2023-04-16T15:16:23.423Z,102664.88
2023-04-16T15:18:50.795Z,102666.47
2023-04-16T15:21:17.313Z,102673.97
2023-04-16T15:23:46.169Z,102673.56
2023-04-16T15:26:15.365Z,102677.34
2023-04-16T15:28:41.849Z,102673.03
2023-04-16T15:31:08.915Z,102672.78
2023-04-16T15:33:35.448Z,102676.47
2023-04-16T15:36:01.899Z,102675.91
2023-04-16T15:38:30.656Z,102674.69
2023-04-16T15:41:02.634Z,102672.69
2023-04-16T15:43:29.776Z,102667.66
2023-04-16T15:45:57.184Z,102676.09
2023-04-16T15:48:24.528Z,102680.13
2023-04-16T15:50:54.243Z,102673.53
2023-04-16T15:53:21.209Z,102671.66
2023-04-16T15:55:50.312Z,102678.81
2023-04-16T15:58:16.937Z,102676.41
2023-04-16T16:00:46.418Z,102673.41
2023-04-16T16:03:19.144Z,102683.59
2023-04-16T16:05:47.179Z,102682.91
2023-04-16T16:08:16.935Z,102671.50
2023-04-16T16:10:46.767Z,102677.75
2023-04-16T16:13:16.014Z,102672.59
2023-04-16T16:15:42.537Z,102669.88
2023-04-16T16:18:09.243Z,102670.44
2023-04-16T16:20:37.015Z,102667.47
2023-04-16T16:23:06.358Z,102671.38
2023-04-16T16:25:32.989Z,102672.34
2023-04-16T16:27:59.984Z,102669.09
2023-04-16T16:30:28.948Z,102670.28
2023-04-16T16:32:58.302Z,102673.41
2023-04-16T16:35:26.055Z,102666.81
2023-04-16T16:37:57.307Z,102673.31
2023-04-16T16:40:24.426Z,102673.41
2023-04-16T16:42:53.660Z,102671.50
2023-04-16T16:45:22.676Z,102671.25
2023-04-16T16:47:51.854Z,102669.09
2023-04-16T16:50:18.536Z,102671.13
2023-04-16T16:52:47.268Z,102676.41
2023-04-16T16:57:42.907Z,102680.25
2023-04-16T17:00:15.043Z,102693.34
2023-04-16T17:02:42.077Z,102685.94
2023-04-16T17:05:09.482Z,102689.84
2023-04-16T17:07:36.394Z,102688.47
2023-04-16T17:10:05.269Z,102692.78
2023-04-16T17:12:33.222Z,102686.69
2023-04-16T17:15:01.750Z,102696.69
2023-04-16T17:17:29.219Z,102688.81
2023-04-16T17:19:55.733Z,102694.09
2023-04-16T17:22:22.240Z,102704.50
2023-04-16T17:24:48.817Z,102697.19
2023-04-16T17:27:15.289Z,102707.44
2023-04-16T17:29:44.179Z,102710.97
2023-04-16T17:32:12.997Z,102711.34
2023-04-16T17:34:39.484Z,102722.28
2023-04-16T17:37:06.060Z,102709.59
2023-04-16T17:39:32.543Z,102719.94
2023-04-16T17:42:01.229Z,102723.16
2023-04-16T17:44:28.015Z,102720.59
2023-04-16T17:46:59.179Z,102724.22
2023-04-16T17:49:25.747Z,102728.91
2023-04-16T17:51:53.791Z,102730.53
2023-04-16T17:54:21.285Z,102733.38
2023-04-16T17:56:47.743Z,102731.19
2023-04-16T17:59:14.213Z,102733.44
2023-04-16T18:01:41.686Z,102728.56
2023-04-16T18:04:10.962Z,102730.06
2023-04-16T18:06:39.958Z,102725.44
2023-04-16T18:09:07.229Z,102735.81
2023-04-16T18:11:34.026Z,102742.59
2023-04-16T18:14:00.487Z,102745.41
2023-04-16T18:16:26.960Z,102745.91
2023-04-16T18:18:53.529Z,102740.19
2023-04-16T18:21:22.482Z,102748.03
2023-04-16T18:23:48.992Z,102744.78
2023-04-16T18:26:18.647Z,102746.28
2023-04-16T18:28:49.887Z,102752.22
2023-04-16T18:31:18.993Z,102757.59
2023-04-16T18:33:56.332Z,102756.88
2023-04-16T18:36:24.457Z,102766.03
2023-04-16T18:39:00.891Z,102771.50
2023-04-16T18:41:33.007Z,102760.94
2023-04-16T18:43:59.491Z,102775.06
2023-04-16T18:46:27.740Z,102769.13
2023-04-16T18:48:54.415Z,102775.63
2023-04-16T18:51:21.295Z,102773.03
2023-04-16T18:53:50.649Z,102782.41
2023-04-16T18:56:19.812Z,102778.88
2023-04-16T18:58:49.292Z,102783.06
2023-04-16T19:01:16.515Z,102790.09
2023-04-16T19:03:43.242Z,102791.00
2023-04-16T19:06:09.794Z,102779.00
2023-04-16T19:08:36.470Z,102781.44
2023-04-16T19:11:02.942Z,102779.94
2023-04-16T19:13:30.442Z,102779.47
2023-04-16T19:16:01.420Z,102786.94
2023-04-16T19:18:28.092Z,102782.84
2023-04-16T19:21:03.443Z,102787.97
2023-04-16T19:23:34.703Z,102788.38
2023-04-16T19:26:01.623Z,102789.28
2023-04-16T19:28:28.460Z,102789.41
2023-04-16T19:30:57.117Z,102783.34
2023-04-16T19:33:26.170Z,102794.66
2023-04-16T19:35:55.816Z,102793.03
2023-04-16T19:38:22.396Z,102782.88
2023-04-16T19:40:49.008Z,102785.72
2023-04-16T19:43:17.809Z,102785.84
2023-04-16T19:45:53.394Z,102785.72
2023-04-16T19:48:23.447Z,102789.88
2023-04-16T19:50:49.978Z,102790.69
2023-04-16T19:53:19.347Z,102788.13
2023-04-16T19:55:45.900Z,102796.78
2023-04-16T19:58:14.402Z,102797.72
2023-04-16T20:00:43.723Z,102794.56
2023-04-16T20:03:10.704Z,102803.88
2023-04-16T20:05:37.213Z,102807.50
2023-04-16T20:08:03.809Z,102801.44
2023-04-16T20:10:31.547Z,102810.28
2023-04-16T20:12:58.224Z,102806.91
2023-04-16T20:15:24.773Z,102805.28
2023-04-16T20:17:53.524Z,102809.34
2023-04-16T20:20:20.149Z,102800.03
2023-04-16T20:22:46.645Z,102802.84
2023-04-16T20:25:14.318Z,102809.84
2023-04-16T20:27:40.774Z,102809.03
2023-04-16T20:30:07.815Z,102808.47
2023-04-16T20:32:36.789Z,102804.97
2023-04-16T20:35:10.246Z,102804.97
2023-04-16T20:37:38.519Z,102804.16
2023-04-16T20:40:09.242Z,102801.59
2023-04-16T20:42:35.754Z,102803.44
2023-04-16T20:45:04.847Z,102806.22
2023-04-16T20:47:31.363Z,102809.81
2023-04-16T20:50:01.693Z,102803.88
2023-04-16T20:52:30.761Z,102806.44
2023-04-16T20:54:57.846Z,102801.44
2023-04-16T20:57:24.348Z,102796.31
2023-04-16T20:59:53.334Z,102798.16
2023-04-16T21:02:20.677Z,102789.81
2023-04-16T21:04:47.326Z,102789.81
2023-04-16T21:07:14.241Z,102788.31
2023-04-16T21:09:40.755Z,102789.22
2023-04-16T21:12:07.487Z,102785.84
2023-04-16T21:14:36.344Z,102779.69
2023-04-16T21:17:07.682Z,102785.75
2023-04-16T21:19:36.440Z,102787.25
2023-04-16T21:22:02.888Z,102786.44
2023-04-16T21:24:34.901Z,102786.19
2023-04-16T21:27:06.252Z,102779.31
2023-04-16T21:29:32.768Z,102781.63
2023-04-16T21:31:59.296Z,102774.09
2023-04-16T21:34:25.820Z,102780.25
2023-04-16T21:36:54.468Z,102783.19
2023-04-16T21:39:25.902Z,102784.34
2023-04-16T21:41:52.367Z,102783.75
2023-04-16T21:44:21.345Z,102784.81
2023-04-16T21:46:50.344Z,102791.69
2023-04-16T21:49:16.779Z,102788.31
2023-04-16T21:51:46.109Z,102796.22
2023-04-16T21:54:12.883Z,102795.41
2023-04-16T21:56:39.428Z,102794.94
2023-04-16T21:59:09.053Z,102796.81
2023-04-16T22:01:40.231Z,102787.59
2023-04-16T22:04:07.454Z,102783.19
2023-04-16T22:06:34.167Z,102791.69
2023-04-16T22:09:01.673Z,102793.44
2023-04-16T22:11:30.574Z,102788.41
2023-04-16T22:13:59.425Z,102781.53
2023-04-16T22:16:25.982Z,102785.84
2023-04-16T22:18:55.072Z,102784.22
2023-04-16T22:21:21.585Z,102782.34
2023-04-16T22:23:48.407Z,102782.34
2023-04-16T22:26:14.908Z,102776.44
2023-04-16T22:28:41.596Z,102786.66
2023-04-16T22:31:10.577Z,102785.16
2023-04-16T22:33:39.159Z,102786.09
2023-04-16T22:36:06.252Z,102781.78
2023-04-16T22:38:32.727Z,102785.16
2023-04-16T22:40:59.251Z,102782.00
2023-04-16T22:43:25.717Z,102781.78
2023-04-16T22:46:02.433Z,102785.97
2023-04-16T22:48:31.772Z,102784.56
2023-04-16T22:50:58.299Z,102789.81
2023-04-16T22:53:24.913Z,102785.03
2023-04-16T22:55:51.432Z,102787.94
2023-04-16T22:58:17.980Z,102787.59
2023-04-16T23:00:47.847Z,102783.41
2023-04-16T23:03:19.609Z,102787.00
2023-04-16T23:05:48.604Z,102779.31
2023-04-16T23:08:15.049Z,102784.56
2023-04-16T23:10:43.885Z,102785.50
2023-04-16T23:13:13.400Z,102789.94
2023-04-16T23:15:39.847Z,102788.75
2023-04-16T23:18:08.944Z,102787.81
2023-04-16T23:20:35.532Z,102782.81
2023-04-16T23:23:02.045Z,102793.06
2023-04-16T23:25:30.958Z,102788.06
2023-04-16T23:27:57.489Z,102790.75
2023-04-16T23:30:23.956Z,102791.44
2023-04-16T23:32:50.655Z,102795.75
2023-04-16T23:35:22.663Z,102801.19
2023-04-16T23:37:49.625Z,102803.63
2023-04-16T23:40:19.127Z,102798.63
2023-04-16T23:42:48.092Z,102802.13
2023-04-16T23:45:14.605Z,102793.72
2023-04-16T23:47:41.232Z,102790.34
2023-04-16T23:50:07.894Z,102796.28
2023-04-16T23:52:34.453Z,102792.44
2023-04-16T23:55:03.317Z,102795.00
2023-04-16T23:57:32.080Z,102798.50
2023-04-16T23:59:58.558Z,102801.06
